This is the latest recevied weather packets stored in our database for station/object VE3EP-1. If no packets are shown the sender has not sent any weather packets the latest 1 day(s).
| Time | Temp. | Humidity | Pressure | Rain* | Wind** | Luminosity | Snow |
|---|---|---|---|---|---|---|---|
| 1778020929 | 8.89° C | 84% | 1010.2 hPa | 0.76 mm | 1.34 m/s, 22° | - | - |
| 1778020328 | 9.44° C | 83% | 1010.1 hPa | 0.51 mm | 1.34 m/s, 19° | - | - |
| 1778019728 | 10° C | 81% | 1010.1 hPa | 0.25 mm | 1.79 m/s, 18° | - | - |
| 1778019130 | 10° C | 78% | 1009.9 hPa | 0.25 mm | 1.79 m/s, 19° | - | - |
| 1778018528 | 11.11° C | 73% | 1009.6 hPa | 0 mm | 2.24 m/s, 24° | - | - |
| 1778017928 | 12.78° C | 65% | 1009 hPa | 0 mm | 2.24 m/s, 28° | - | - |
| 1778017329 | 12.78° C | 67% | 1008.8 hPa | 0 mm | 1.34 m/s, 18° | - | - |
| 1778016729 | 12.22° C | 79% | 1008.7 hPa | 0 mm | 0.45 m/s, 13° | - | - |
| 1778016128 | 11.67° C | 78% | 1008.4 hPa | 0 mm | 0.45 m/s, 10° | - | - |
| 1778014928 | 11.67° C | 79% | 1007.6 hPa | 0 mm | 0.45 m/s, 19° | - | - |
| 1778013728 | 11.67° C | 78% | 1007.4 hPa | 0 mm | 0.89 m/s, 10° | - | - |
| 1778013128 | 11.67° C | 77% | 1007.4 hPa | 0 mm | 0.45 m/s, 2° | - | - |
| 1778011928 | 11.67° C | 80% | 1007 hPa | 0 mm | 0.45 m/s, 10° | - | - |
| 1778011329 | 11.67° C | 78% | 1006.9 hPa | 0 mm | 0 m/s | - | - |
| 1778010728 | 11.67° C | 77% | 1007.2 hPa | 0 mm | 0.45 m/s, 306° | - | - |
| 1778009528 | 12.78° C | 75% | 1006.7 hPa | 0 mm | 0 m/s | - | - |
| 1778008928 | 12.22° C | 78% | 1006.6 hPa | 0 mm | 0 m/s | - | - |
| 1778007728 | 12.22° C | 76% | 1006.6 hPa | 0 mm | 0.45 m/s, 324° | - | - |
| 1778007128 | 13.33° C | 71% | 1006.7 hPa | 0 mm | 0.45 m/s, 346° | - | - |
| 1778006528 | 12.78° C | 74% | 1006.3 hPa | 0 mm | 0.45 m/s, 349° | - | - |
| 1778005928 | 15° C | 67% | 1006.2 hPa | 0 mm | 0.45 m/s, 329° | - | - |
| 1778005328 | 13.89° C | 70% | 1006.2 hPa | 0 mm | 0.45 m/s, 348° | - | - |
| 1778004728 | 12.78° C | 74% | 1006.1 hPa | 0 mm | 0.45 m/s, 344° | - | - |
| 1778003528 | 13.89° C | 74% | 1006.2 hPa | 0 mm | 0.89 m/s, 348° | - | - |
| 1778002328 | 14.44° C | 75% | 1006.2 hPa | 0 mm | 1.34 m/s, 356° | - | - |
* Rain latest hour (hover to see other rain measurements)
** Current wind speed in m/s (hover to see current wind gust speed)